Time;durP1;ratioP1;P1;durP2;ratioP2;P2;SDS_P1;SDS_P2;PMS_P1;PMS_P2;Temp;Humidity;BMP_temperature;BMP_pressure;BME280_temperature;BME280_humidity;BME280_pressure;Samples;Min_cycle;Max_cycle;Signal;HPM_P1;HPM_P2
2022/11/01 00:01:44;;;;;;;14.07;9.37;;;13.50;99.90;;;;;;5034496;28;20927;-70
2022/11/01 00:04:10;;;;;;;13.13;10.20;;;13.50;99.90;;;;;;5044846;28;20815;-69
2022/11/01 00:06:36;;;;;;;12.60;9.80;;;13.50;99.90;;;;;;5046830;28;20265;-70
2022/11/01 00:09:03;;;;;;;13.43;9.30;;;13.50;99.90;;;;;;5048196;28;20538;-71
2022/11/01 00:11:28;;;;;;;18.80;10.90;;;13.50;99.90;;;;;;5048230;28;20473;-70
2022/11/01 00:13:54;;;;;;;15.83;9.97;;;13.50;99.90;;;;;;5058427;28;20473;-70
2022/11/01 00:16:21;;;;;;;12.60;9.90;;;13.50;99.90;;;;;;5064523;28;20262;-70
2022/11/01 00:18:47;;;;;;;16.73;10.10;;;13.50;99.90;;;;;;5048501;28;20703;-69
2022/11/01 00:21:13;;;;;;;9.90;8.80;;;13.50;99.90;;;;;;5060353;28;20446;-69
2022/11/01 00:23:39;;;;;;;12.67;10.10;;;13.50;99.90;;;;;;5059483;28;20447;-70
2022/11/01 00:26:05;;;;;;;13.20;10.20;;;13.50;99.90;;;;;;5047884;28;20529;-69
2022/11/01 00:28:32;;;;;;;12.80;10.97;;;13.40;99.90;;;;;;5064554;28;20289;-70
2022/11/01 00:30:58;;;;;;;14.13;11.80;;;13.40;99.90;;;;;;5048330;28;20469;-70
2022/11/01 00:33:24;;;;;;;16.23;11.57;;;13.50;99.90;;;;;;5047190;28;20529;-69
2022/11/01 00:35:51;;;;;;;20.97;11.20;;;13.50;99.90;;;;;;5045224;28;20546;-69
2022/11/01 00:38:17;;;;;;;20.37;12.70;;;13.40;99.90;;;;;;5048308;28;20458;-69
2022/11/01 00:40:44;;;;;;;16.00;11.73;;;13.40;99.90;;;;;;5048185;28;20490;-69
2022/11/01 00:43:10;;;;;;;15.77;10.70;;;13.40;99.90;;;;;;5062487;28;20489;-69
2022/11/01 00:45:36;;;;;;;14.83;10.70;;;13.40;99.90;;;;;;5047693;28;20501;-70
2022/11/01 00:48:02;;;;;;;20.17;11.73;;;13.40;99.90;;;;;;5047251;28;20957;-69
2022/11/01 00:50:28;;;;;;;16.87;11.83;;;13.40;99.90;;;;;;5038201;28;20238;-70
2022/11/01 00:52:53;;;;;;;17.53;11.00;;;13.40;99.90;;;;;;5040830;28;20228;-70
2022/11/01 00:55:19;;;;;;;16.30;9.23;;;13.40;99.90;;;;;;5039934;28;20250;-70
2022/11/01 00:57:45;;;;;;;12.70;9.57;;;13.40;99.90;;;;;;5031953;28;20215;-69
2022/11/01 01:00:13;;;;;;;14.50;10.37;;;13.40;99.90;;;;;;5047313;28;20650;-69
2022/11/01 01:02:39;;;;;;;16.63;10.40;;;13.40;99.90;;;;;;5047445;28;20446;-69
2022/11/01 01:05:06;;;;;;;15.20;9.87;;;13.40;99.90;;;;;;5043223;28;20484;-70
2022/11/01 01:07:32;;;;;;;15.27;9.97;;;13.40;99.90;;;;;;5048259;28;20451;-71
2022/11/01 01:09:58;;;;;;;18.53;10.13;;;13.40;99.90;;;;;;5047800;28;20469;-70
2022/11/01 01:12:24;;;;;;;13.70;9.10;;;13.40;99.90;;;;;;5046230;28;20455;-70
2022/11/01 01:14:49;;;;;;;14.33;9.60;;;13.40;99.90;;;;;;5047957;28;20248;-70
2022/11/01 01:17:15;;;;;;;13.03;10.40;;;13.40;99.90;;;;;;5043302;28;20299;-69
2022/11/01 01:19:41;;;;;;;14.23;10.27;;;13.40;99.90;;;;;;5039973;28;20232;-72
2022/11/01 01:22:10;;;;;;;14.70;10.10;;;13.40;99.90;;;;;;5053427;28;20294;-72
2022/11/01 01:24:36;;;;;;;16.20;9.63;;;13.40;99.90;;;;;;5054204;28;20494;-70
2022/11/01 01:27:02;;;;;;;15.07;11.07;;;13.40;99.90;;;;;;5043927;28;20490;-69
2022/11/01 01:29:28;;;;;;;20.80;11.40;;;13.40;99.90;;;;;;5051719;28;20215;-70
2022/11/01 01:31:54;;;;;;;13.07;9.73;;;13.40;99.90;;;;;;5064301;28;20833;-70
2022/11/01 01:34:19;;;;;;;15.57;9.77;;;13.40;99.90;;;;;;5046138;28;20212;-69
2022/11/01 01:36:45;;;;;;;25.60;11.23;;;13.40;99.90;;;;;;5046468;28;20728;-70
2022/11/01 01:39:11;;;;;;;19.70;10.20;;;13.40;99.90;;;;;;5046257;28;20612;-69
2022/11/01 01:41:55;;;;;;;14.73;10.03;;;13.40;99.90;;;;;;5046671;28;20439;-70
2022/11/01 01:44:45;;;;;;;16.13;9.33;;;13.40;99.90;;;;;;5047602;28;20220;-69
2022/11/01 01:47:32;;;;;;;14.43;8.47;;;13.30;99.90;;;;;;5034119;28;20812;-69
2022/11/01 01:50:12;;;;;;;13.87;9.00;;;13.30;99.90;;;;;;5049983;28;20521;-70
2022/11/01 01:52:49;;;;;;;12.80;9.57;;;13.30;99.90;;;;;;5040931;28;20450;-69
2022/11/01 01:55:19;;;;;;;12.70;8.90;;;13.30;99.90;;;;;;5042893;28;20507;-69
2022/11/01 01:57:46;;;;;;;11.93;9.10;;;13.30;99.90;;;;;;5047968;28;20545;-70
2022/11/01 02:00:13;;;;;;;9.10;8.17;;;13.30;99.90;;;;;;5050991;28;20524;-69
2022/11/01 02:02:41;;;;;;;11.50;8.90;;;13.30;99.90;;;;;;5044694;28;20478;-70
2022/11/01 02:05:15;;;;;;;12.30;8.03;;;13.30;99.90;;;;;;5055319;28;20520;-71
2022/11/01 02:07:43;;;;;;;10.53;8.13;;;13.30;99.90;;;;;;5040227;28;20450;-70
2022/11/01 02:10:10;;;;;;;13.40;9.07;;;13.30;99.90;;;;;;5037873;28;20465;-69
2022/11/01 02:12:36;;;;;;;15.40;10.20;;;13.30;99.90;;;;;;5043115;28;20459;-70
2022/11/01 02:15:04;;;;;;;11.43;8.83;;;13.30;99.90;;;;;;5056195;28;20458;-70
2022/11/01 02:17:39;;;;;;;12.03;9.13;;;13.30;99.90;;;;;;5043763;28;20622;-71
2022/11/01 02:20:17;;;;;;;9.90;8.13;;;13.30;99.90;;;;;;5060196;28;20480;-70
2022/11/01 02:23:07;;;;;;;22.53;10.47;;;13.30;99.90;;;;;;5041559;28;20458;-70
2022/11/01 02:25:54;;;;;;;10.17;9.07;;;13.30;99.90;;;;;;5044025;28;20454;-69
2022/11/01 02:28:26;;;;;;;13.60;8.73;;;13.30;99.90;;;;;;5042619;28;20471;-69
2022/11/01 02:31:13;;;;;;;13.07;9.50;;;13.30;99.90;;;;;;5044721;28;20828;-70
2022/11/01 02:33:45;;;;;;;10.40;8.80;;;13.30;99.90;;;;;;5041720;28;20976;-69
2022/11/01 02:36:29;;;;;;;14.33;9.27;;;13.30;99.90;;;;;;5040835;28;20534;-70
2022/11/01 02:39:04;;;;;;;11.30;8.90;;;13.30;99.90;;;;;;5025215;28;20470;-70
2022/11/01 02:41:43;;;;;;;16.10;8.07;;;13.30;99.90;;;;;;5047749;28;20442;-70
2022/11/01 02:44:17;;;;;;;10.10;8.27;;;13.30;99.90;;;;;;5035347;28;20459;-71
2022/11/01 02:47:00;;;;;;;10.63;8.50;;;13.30;99.90;;;;;;5044717;28;20448;-69
2022/11/01 02:49:47;;;;;;;10.60;8.97;;;13.30;99.90;;;;;;5064972;28;20486;-69
2022/11/01 02:52:17;;;;;;;13.90;9.67;;;13.30;99.90;;;;;;5038531;28;20506;-67
2022/11/01 02:54:47;;;;;;;10.57;8.97;;;13.30;99.90;;;;;;5049560;28;20450;-70
2022/11/01 02:57:16;;;;;;;11.20;9.20;;;13.30;99.90;;;;;;5044990;28;20455;-69
2022/11/01 02:59:43;;;;;;;11.77;9.03;;;13.30;99.90;;;;;;5058819;28;20473;-69
2022/11/01 03:02:38;;;;;;;15.23;8.50;;;13.30;99.90;;;;;;5055155;28;20520;-71
2022/11/01 03:05:28;;;;;;;13.10;9.50;;;13.30;99.90;;;;;;5052521;28;20975;-69
2022/11/01 03:08:03;;;;;;;12.10;9.90;;;13.30;99.90;;;;;;5035429;28;20474;-70
2022/11/01 03:10:38;;;;;;;13.60;9.43;;;13.30;99.90;;;;;;5039888;28;20959;-69
2022/11/01 03:13:36;;;;;;;11.00;8.40;;;13.20;99.90;;;;;;5042191;28;20545;-70
2022/11/01 03:16:19;;;;;;;13.00;8.60;;;13.20;99.90;;;;;;5061897;28;20459;-70
2022/11/01 03:19:02;;;;;;;13.17;9.27;;;13.20;99.90;;;;;;5045977;28;20453;-70
2022/11/01 03:21:32;;;;;;;14.20;8.20;;;13.20;99.90;;;;;;5048659;28;20475;-70
2022/11/01 03:24:10;;;;;;;13.10;8.80;;;13.20;99.90;;;;;;5041162;28;20561;-70
2022/11/01 03:26:37;;;;;;;11.47;8.70;;;13.20;99.90;;;;;;5050483;28;20443;-70
2022/11/01 03:29:08;;;;;;;12.73;8.87;;;13.20;99.90;;;;;;5025893;28;20458;-71
2022/11/01 03:31:36;;;;;;;13.10;9.90;;;13.20;99.90;;;;;;5038736;28;20446;-70
2022/11/01 03:34:05;;;;;;;13.17;9.10;;;13.20;99.90;;;;;;5046728;28;20451;-71
2022/11/01 03:36:37;;;;;;;12.87;7.83;;;13.30;99.90;;;;;;5042172;28;20459;-71
2022/11/01 03:39:21;;;;;;;14.83;8.23;;;13.20;99.90;;;;;;5043748;28;20471;-71
2022/11/01 03:41:52;;;;;;;10.27;7.90;;;13.30;99.90;;;;;;5053272;28;20460;-69
2022/11/01 03:44:18;;;;;;;12.77;10.50;;;13.30;99.90;;;;;;5043382;28;20451;-70
2022/11/01 03:46:45;;;;;;;11.40;9.17;;;13.30;99.90;;;;;;5040360;28;20508;-70
2022/11/01 03:49:18;;;;;;;10.33;9.27;;;13.30;99.90;;;;;;5055834;28;20463;-70
2022/11/01 03:51:45;;;;;;;16.70;9.83;;;13.30;99.90;;;;;;5038784;28;20450;-70
2022/11/01 03:54:11;;;;;;;11.17;9.37;;;13.30;99.90;;;;;;5047713;28;20454;-71
2022/11/01 03:56:39;;;;;;;16.47;9.50;;;13.30;99.90;;;;;;5026437;28;20458;-69
2022/11/01 03:59:06;;;;;;;10.70;8.67;;;13.30;99.90;;;;;;5043010;28;20221;-71
2022/11/01 04:01:33;;;;;;;15.67;9.90;;;13.30;99.90;;;;;;5036988;28;20443;-70
2022/11/01 04:03:58;;;;;;;12.40;9.90;;;13.20;99.90;;;;;;5039288;28;20532;-70
2022/11/01 04:06:24;;;;;;;12.83;9.77;;;13.30;99.90;;;;;;5055766;28;20542;-70
2022/11/01 04:08:50;;;;;;;11.90;8.87;;;13.30;99.90;;;;;;5060001;28;20216;-71
2022/11/01 04:11:16;;;;;;;13.90;9.43;;;13.30;99.90;;;;;;5054756;28;20223;-70
2022/11/01 04:13:42;;;;;;;14.70;10.17;;;13.30;99.90;;;;;;5038933;28;20211;-70
2022/11/01 04:21:39;;;;;;;12.30;9.17;;;13.30;99.90;;;;;;5050139;28;20534;-72
2022/11/01 04:24:06;;;;;;;14.10;10.50;;;13.30;99.90;;;;;;5049958;28;20459;-71
2022/11/01 04:26:32;;;;;;;13.43;9.97;;;13.30;99.90;;;;;;5049680;28;20442;-71
2022/11/01 04:28:58;;;;;;;14.20;10.00;;;13.30;99.90;;;;;;5037139;28;20473;-71
2022/11/01 04:31:35;;;;;;;13.23;9.30;;;13.30;99.90;;;;;;5034841;28;20466;-69
2022/11/01 04:34:03;;;;;;;10.27;9.23;;;13.30;99.90;;;;;;5037435;28;20294;-70
2022/11/01 04:36:29;;;;;;;12.40;9.50;;;13.30;99.90;;;;;;5056925;28;20684;-71
2022/11/01 04:38:56;;;;;;;12.83;10.17;;;13.30;99.90;;;;;;5034941;28;20621;-69
2022/11/01 04:41:24;;;;;;;16.83;9.80;;;13.30;99.90;;;;;;5034323;28;20209;-71
2022/11/01 04:43:52;;;;;;;15.63;9.60;;;13.30;99.90;;;;;;5034688;28;20612;-71
2022/11/01 04:46:18;;;;;;;11.70;9.50;;;13.30;99.90;;;;;;5051063;28;21116;-69
2022/11/01 04:48:44;;;;;;;16.13;10.43;;;13.30;99.90;;;;;;5037502;28;20454;-72
2022/11/01 04:51:10;;;;;;;12.60;8.80;;;13.20;99.90;;;;;;5053765;28;20215;-70
2022/11/01 04:53:36;;;;;;;12.37;10.00;;;13.20;99.90;;;;;;5038136;28;20215;-72
2022/11/01 04:56:03;;;;;;;13.90;8.80;;;13.20;99.90;;;;;;5040194;28;20446;-72
2022/11/01 04:58:29;;;;;;;10.60;8.60;;;13.30;99.90;;;;;;5039883;28;20508;-71
2022/11/01 05:00:55;;;;;;;10.00;8.13;;;13.30;99.90;;;;;;5036898;28;20455;-71
2022/11/01 05:03:21;;;;;;;10.93;8.07;;;13.30;99.90;;;;;;5055636;28;20879;-70
2022/11/01 05:05:46;;;;;;;10.20;7.80;;;13.30;99.90;;;;;;5041871;28;20281;-70
2022/11/01 05:08:13;;;;;;;8.80;6.90;;;13.30;99.90;;;;;;5039883;28;20302;-69
2022/11/01 05:10:41;;;;;;;10.33;7.73;;;13.30;99.90;;;;;;5036386;28;20251;-72
2022/11/01 05:13:08;;;;;;;10.37;6.70;;;13.30;99.90;;;;;;5019237;28;20836;-71
2022/11/01 05:15:34;;;;;;;10.20;7.67;;;13.30;99.90;;;;;;5036628;28;20462;-69
2022/11/01 05:18:00;;;;;;;10.80;7.40;;;13.30;99.90;;;;;;5044603;28;20524;-71
2022/11/01 05:20:27;;;;;;;8.97;7.37;;;13.30;99.90;;;;;;5038626;28;20971;-72
2022/11/01 05:23:01;;;;;;;11.93;8.23;;;13.30;99.90;;;;;;5030486;28;20529;-70
2022/11/01 05:25:27;;;;;;;9.90;7.87;;;13.30;99.90;;;;;;5038452;28;21020;-70
2022/11/01 05:28:06;;;;;;;10.33;7.60;;;13.40;99.90;;;;;;5049832;28;20459;-72
2022/11/01 05:30:33;;;;;;;11.20;7.00;;;13.30;99.90;;;;;;5051036;28;20810;-71
2022/11/01 05:33:00;;;;;;;8.63;7.33;;;13.30;99.90;;;;;;5050321;28;20513;-71
2022/11/01 05:35:27;;;;;;;15.40;7.23;;;13.40;99.90;;;;;;5037502;28;20458;-70
2022/11/01 05:37:54;;;;;;;9.90;6.40;;;13.40;99.90;;;;;;5058041;28;20487;-70
2022/11/01 05:40:20;;;;;;;8.73;6.47;;;13.40;99.90;;;;;;5057407;28;20475;-71
2022/11/01 05:42:46;;;;;;;10.97;7.03;;;13.40;99.90;;;;;;5051678;28;20497;-71
2022/11/01 05:45:12;;;;;;;10.53;8.40;;;13.40;99.90;;;;;;5058338;28;20485;-71
2022/11/01 05:47:40;;;;;;;17.67;10.07;;;13.40;99.90;;;;;;5027186;28;20224;-71
2022/11/01 05:50:11;;;;;;;23.37;13.23;;;13.40;99.90;;;;;;5057601;28;20650;-71
2022/11/01 05:52:37;;;;;;;19.30;13.00;;;13.40;99.90;;;;;;5032672;28;20596;-70
2022/11/01 05:55:04;;;;;;;21.37;13.77;;;13.40;99.90;;;;;;5052398;28;20469;-70
2022/11/01 05:57:30;;;;;;;18.90;12.87;;;13.40;99.90;;;;;;5035792;28;20459;-72
2022/11/01 05:59:55;;;;;;;18.80;14.10;;;13.40;99.90;;;;;;5048597;28;20486;-71
2022/11/01 06:02:21;;;;;;;18.10;12.70;;;13.40;99.90;;;;;;5035300;28;20224;-70
2022/11/01 06:04:47;;;;;;;20.13;14.43;;;13.40;99.90;;;;;;5054663;28;20223;-71
2022/11/01 06:07:12;;;;;;;22.83;13.83;;;13.40;99.90;;;;;;5034318;28;20283;-71
2022/11/01 06:09:38;;;;;;;17.40;13.00;;;13.40;99.90;;;;;;5056916;28;20274;-70
2022/11/01 06:12:04;;;;;;;15.93;12.77;;;13.40;99.90;;;;;;5056111;28;20220;-71
2022/11/01 06:14:30;;;;;;;18.83;13.83;;;13.40;99.90;;;;;;5042100;28;20232;-70
2022/11/01 06:16:55;;;;;;;18.60;11.93;;;13.40;99.90;;;;;;5056271;28;20459;-71
2022/11/01 06:19:21;;;;;;;16.20;11.73;;;13.40;99.90;;;;;;5039500;28;20224;-71
2022/11/01 06:21:47;;;;;;;15.70;11.87;;;13.40;99.90;;;;;;5022286;28;20269;-70
2022/11/01 06:24:13;;;;;;;19.00;13.87;;;13.40;99.90;;;;;;5041891;28;20207;-71
2022/11/01 06:26:38;;;;;;;20.43;14.57;;;13.40;99.90;;;;;;5047350;28;20239;-71
2022/11/01 06:29:04;;;;;;;16.83;10.73;;;13.40;99.90;;;;;;5055142;28;20501;-73
2022/11/01 06:31:30;;;;;;;17.73;12.37;;;13.40;99.90;;;;;;5054229;28;20252;-70
2022/11/01 06:33:55;;;;;;;13.00;11.17;;;13.40;99.90;;;;;;5051049;28;20251;-71
2022/11/01 06:36:22;;;;;;;11.30;9.73;;;13.40;99.90;;;;;;5038465;28;20216;-69
2022/11/01 06:38:48;;;;;;;14.93;10.13;;;13.40;99.90;;;;;;5046043;28;20238;-71
2022/11/01 06:41:14;;;;;;;11.60;7.97;;;13.30;99.90;;;;;;5055863;28;20440;-70
2022/11/01 06:43:40;;;;;;;11.27;9.30;;;13.40;99.90;;;;;;5042432;28;20441;-71
2022/11/01 06:46:06;;;;;;;10.30;6.93;;;13.40;99.90;;;;;;5042488;28;20990;-70
2022/11/01 06:48:32;;;;;;;7.53;6.77;;;13.40;99.90;;;;;;5038141;28;21012;-71
2022/11/01 06:51:01;;;;;;;6.37;5.73;;;13.40;99.90;;;;;;5055344;28;20443;-70
2022/11/01 06:53:27;;;;;;;7.17;5.53;;;13.40;99.90;;;;;;5046023;28;20577;-70
2022/11/01 06:55:52;;;;;;;8.40;5.70;;;13.40;99.90;;;;;;5053939;28;20535;-71
2022/11/01 06:58:18;;;;;;;8.00;5.23;;;13.40;99.90;;;;;;5041700;28;20223;-71
2022/11/01 07:00:44;;;;;;;6.30;5.00;;;13.40;99.90;;;;;;5049098;28;20223;-71
2022/11/01 07:03:12;;;;;;;6.83;4.90;;;13.40;99.90;;;;;;5034283;28;20227;-71
2022/11/01 07:05:38;;;;;;;6.83;4.40;;;13.40;99.90;;;;;;5041961;28;20266;-70
2022/11/01 07:08:06;;;;;;;8.90;4.40;;;13.40;99.90;;;;;;5041019;28;20462;-72
2022/11/01 07:10:32;;;;;;;5.53;4.80;;;13.40;99.90;;;;;;5043013;28;20454;-70
2022/11/01 07:13:02;;;;;;;7.30;4.47;;;13.40;99.90;;;;;;5045626;28;20466;-70
2022/11/01 07:15:29;;;;;;;7.23;5.37;;;13.40;99.90;;;;;;5057222;28;20463;-70
2022/11/01 07:17:59;;;;;;;6.67;5.90;;;13.40;99.90;;;;;;5042520;28;20458;-69
2022/11/01 07:20:26;;;;;;;7.10;5.63;;;13.50;99.90;;;;;;5034925;28;20584;-71
2022/11/01 07:23:04;;;;;;;6.27;5.70;;;13.50;99.90;;;;;;5039730;28;20467;-70
2022/11/01 07:25:31;;;;;;;6.70;5.50;;;13.50;99.90;;;;;;5037914;28;20483;-70
2022/11/01 07:27:58;;;;;;;5.90;5.30;;;13.50;99.90;;;;;;5034368;28;20504;-71
2022/11/01 07:30:24;;;;;;;5.33;4.53;;;13.50;99.90;;;;;;5059111;28;20472;-72
2022/11/01 07:32:58;;;;;;;6.80;4.87;;;13.50;99.90;;;;;;5041513;28;20985;-72
2022/11/01 07:35:24;;;;;;;5.17;4.67;;;13.60;99.90;;;;;;5056127;28;21061;-70
2022/11/01 07:37:50;;;;;;;4.97;4.20;;;13.60;99.90;;;;;;5045142;28;20455;-72
2022/11/01 07:40:16;;;;;;;5.87;4.00;;;13.60;99.90;;;;;;5038400;28;20466;-72
2022/11/01 07:42:43;;;;;;;5.07;3.70;;;13.60;99.90;;;;;;5061328;28;20790;-72
2022/11/01 07:45:11;;;;;;;4.93;3.70;;;13.70;99.90;;;;;;5055734;28;20458;-71
2022/11/01 07:47:37;;;;;;;6.00;3.57;;;13.80;99.90;;;;;;5038391;28;20485;-71
2022/11/01 07:50:04;;;;;;;5.17;3.73;;;13.80;99.90;;;;;;5038446;28;20476;-71
2022/11/01 07:52:30;;;;;;;6.37;3.43;;;13.90;99.90;;;;;;5036643;28;20961;-70
2022/11/01 07:54:56;;;;;;;3.13;2.87;;;13.90;99.90;;;;;;5040821;28;20982;-71
2022/11/01 07:57:22;;;;;;;10.03;3.97;;;14.00;99.90;;;;;;5051352;28;20516;-69
2022/11/01 07:59:47;;;;;;;5.50;3.70;;;14.00;99.90;;;;;;5035517;28;20467;-71
2022/11/01 08:02:13;;;;;;;7.10;4.40;;;14.00;99.90;;;;;;5040632;28;20216;-71
2022/11/01 08:04:39;;;;;;;7.40;4.40;;;14.10;99.90;;;;;;5051888;28;20216;-70
2022/11/01 08:07:04;;;;;;;10.27;5.33;;;14.10;99.90;;;;;;5041871;28;20217;-71
2022/11/01 08:09:30;;;;;;;4.73;3.97;;;14.10;99.90;;;;;;5032248;28;20319;-71
2022/11/01 08:11:56;;;;;;;4.10;3.50;;;14.10;99.90;;;;;;5028060;28;20226;-71
2022/11/01 08:14:21;;;;;;;4.47;4.03;;;14.20;99.90;;;;;;5043896;28;20238;-71
2022/11/01 08:16:49;;;;;;;6.73;4.80;;;14.20;99.90;;;;;;5042151;28;20231;-70
2022/11/01 08:19:15;;;;;;;7.57;5.03;;;14.20;99.90;;;;;;5033262;28;20649;-70
2022/11/01 08:21:40;;;;;;;12.70;11.40;;;14.20;99.90;;;;;;5028196;28;20459;-71
2022/11/01 08:24:06;;;;;;;15.60;14.03;;;14.30;99.90;;;;;;5039914;28;20207;-70
2022/11/01 08:26:32;;;;;;;11.43;10.23;;;14.30;99.90;;;;;;5062323;28;20219;-72
2022/11/01 08:28:59;;;;;;;9.40;7.10;;;14.30;99.90;;;;;;5042954;28;20212;-70
2022/11/01 08:31:24;;;;;;;10.53;6.33;;;14.40;99.90;;;;;;5018139;28;20703;-71
2022/11/01 08:33:50;;;;;;;6.80;5.90;;;14.40;99.90;;;;;;5045800;28;20440;-72
2022/11/01 08:36:16;;;;;;;7.60;6.33;;;14.50;99.90;;;;;;5049896;28;20230;-73
2022/11/01 08:38:43;;;;;;;6.67;6.07;;;14.50;99.90;;;;;;5057030;28;20227;-70
2022/11/01 08:41:09;;;;;;;6.50;5.10;;;14.50;99.90;;;;;;5039332;28;20454;-72
2022/11/01 08:43:34;;;;;;;4.37;3.97;;;14.50;99.90;;;;;;5048994;28;20439;-71
2022/11/01 08:46:00;;;;;;;14.57;11.27;;;14.60;99.90;;;;;;5053171;28;20211;-73
2022/11/01 08:48:26;;;;;;;53.33;33.33;;;14.60;99.90;;;;;;5049023;28;20231;-69
2022/11/01 08:50:52;;;;;;;95.53;55.23;;;14.60;99.90;;;;;;5036671;28;20220;-71
2022/11/01 08:53:18;;;;;;;97.10;54.17;;;14.60;99.90;;;;;;5038474;28;20209;-69
2022/11/01 08:55:44;;;;;;;101.77;56.83;;;14.60;99.90;;;;;;5056787;28;20208;-72
2022/11/01 08:58:10;;;;;;;74.00;44.70;;;14.60;99.90;;;;;;5037935;28;20537;-71
2022/11/01 09:00:36;;;;;;;32.23;20.20;;;14.60;99.90;;;;;;5045316;28;20227;-72
2022/11/01 09:03:03;;;;;;;24.83;18.33;;;14.70;99.90;;;;;;5054115;28;20463;-72
2022/11/01 09:05:30;;;;;;;15.60;13.73;;;14.70;99.90;;;;;;5025947;28;20680;-71
2022/11/01 09:07:59;;;;;;;11.63;9.30;;;14.70;99.90;;;;;;5055183;28;20470;-70
2022/11/01 09:10:25;;;;;;;10.23;6.30;;;14.70;99.90;;;;;;5034722;28;20462;-70
2022/11/01 09:12:51;;;;;;;10.13;7.20;;;14.70;99.90;;;;;;5040185;28;20596;-72
2022/11/01 09:15:17;;;;;;;6.10;5.03;;;14.70;99.90;;;;;;5036609;28;20496;-72
2022/11/01 09:17:42;;;;;;;6.67;4.03;;;14.70;99.90;;;;;;5027562;28;20291;-73
2022/11/01 09:20:08;;;;;;;4.23;3.83;;;14.70;99.90;;;;;;5054702;28;20342;-72
2022/11/01 09:22:36;;;;;;;3.70;2.60;;;14.70;99.90;;;;;;5044765;28;20294;-71
2022/11/01 09:25:04;;;;;;;6.33;2.43;;;14.70;99.90;;;;;;5044066;28;20231;-71
2022/11/01 09:27:29;;;;;;;3.80;2.23;;;14.70;99.90;;;;;;5036901;28;20501;-69
2022/11/01 09:29:55;;;;;;;2.07;1.70;;;14.60;99.90;;;;;;5053811;28;20495;-70
2022/11/01 09:32:21;;;;;;;1.80;1.20;;;14.50;99.90;;;;;;5035445;28;20717;-69
2022/11/01 09:34:48;;;;;;;7.83;4.10;;;14.30;99.90;;;;;;5056620;28;20218;-70
2022/11/01 09:37:14;;;;;;;3.57;3.27;;;14.30;99.90;;;;;;5042352;28;20607;-70
2022/11/01 09:39:40;;;;;;;3.93;2.20;;;14.20;99.90;;;;;;5043584;28;20467;-70
2022/11/01 09:42:31;;;;;;;2.07;1.77;;;14.20;99.90;;;;;;5054390;28;20508;-70
2022/11/01 09:45:02;;;;;;;3.13;2.83;;;14.10;99.90;;;;;;5038731;28;20230;-70
2022/11/01 09:47:30;;;;;;;3.50;3.20;;;14.10;99.90;;;;;;5042919;28;20450;-69
2022/11/01 09:50:05;;;;;;;1.70;1.60;;;14.10;99.90;;;;;;5045293;28;20513;-71
2022/11/01 09:52:31;;;;;;;3.53;1.43;;;14.10;99.90;;;;;;5040269;28;20786;-71
2022/11/01 09:54:57;;;;;;;1.20;1.10;;;14.10;99.90;;;;;;5040901;28;20525;-71
2022/11/01 09:57:50;;;;;;;2.23;1.53;;;14.10;99.90;;;;;;5063637;28;20594;-71
2022/11/01 10:00:20;;;;;;;3.23;2.10;;;14.20;99.90;;;;;;5024142;28;20475;-70
2022/11/01 10:03:04;;;;;;;1.57;1.47;;;14.30;99.90;;;;;;5042185;28;20458;-71
2022/11/01 10:05:51;;;;;;;2.80;1.60;;;14.40;99.90;;;;;;5043440;28;20976;-71
2022/11/01 10:09:04;;;;;;;4.00;2.33;;;14.50;99.90;;;;;;5028384;28;20598;-71
2022/11/01 10:12:22;;;;;;;1.50;1.40;;;14.60;99.90;;;;;;5020383;28;20463;-70
2022/11/01 10:14:57;;;;;;;1.67;1.23;;;14.70;99.90;;;;;;5035905;28;20461;-71
2022/11/01 10:17:53;;;;;;;2.23;1.43;;;14.80;99.90;;;;;;5029651;28;20458;-68
2022/11/01 10:20:27;;;;;;;3.57;3.27;;;14.80;99.90;;;;;;5063271;28;20485;-70
2022/11/01 10:22:53;;;;;;;3.20;3.00;;;14.90;99.90;;;;;;5030018;28;20470;-71
2022/11/01 10:25:25;;;;;;;2.53;2.33;;;15.00;99.90;;;;;;5032436;28;20466;-70
2022/11/01 10:28:05;;;;;;;1.93;1.80;;;15.00;99.90;;;;;;5043758;28;20465;-70
2022/11/01 10:30:39;;;;;;;1.30;1.20;;;15.10;99.90;;;;;;5063891;28;20458;-70
2022/11/01 10:33:32;;;;;;;4.07;1.50;;;15.20;99.90;;;;;;5062627;28;20452;-70
2022/11/01 10:36:03;;;;;;;2.80;1.40;;;15.30;99.90;;;;;;5041698;28;20458;-71
2022/11/01 10:38:39;;;;;;;2.53;2.43;;;15.30;99.90;;;;;;5055902;28;20452;-71
2022/11/01 10:41:20;;;;;;;1.40;1.30;;;15.40;99.90;;;;;;5043047;28;20547;-71
2022/11/01 10:43:50;;;;;;;1.60;0.93;;;15.50;99.90;;;;;;5043277;28;20848;-71
2022/11/01 10:46:19;;;;;;;3.13;1.60;;;15.50;99.90;;;;;;5044142;28;20467;-71
2022/11/01 10:48:54;;;;;;;1.80;1.17;;;15.50;99.90;;;;;;5036579;28;20444;-71
2022/11/01 10:51:21;;;;;;;0.70;0.70;;;15.70;99.90;;;;;;5056774;28;20478;-70
2022/11/01 10:53:52;;;;;;;1.77;0.87;;;15.80;99.90;;;;;;5039481;28;20566;-70
2022/11/01 10:56:33;;;;;;;2.30;1.10;;;15.90;99.90;;;;;;5033405;28;20455;-71
2022/11/01 10:59:28;;;;;;;1.67;0.60;;;15.90;99.90;;;;;;5061174;28;20462;-71
2022/11/01 11:01:55;;;;;;;1.10;0.80;;;16.00;99.90;;;;;;5042761;28;20457;-71
2022/11/01 11:04:22;;;;;;;1.70;1.00;;;16.10;99.90;;;;;;5036695;28;20546;-70
2022/11/01 11:06:49;;;;;;;1.93;0.70;;;16.20;99.90;;;;;;5049048;28;20505;-71
2022/11/01 11:09:28;;;;;;;1.43;0.60;;;16.10;99.90;;;;;;5040703;28;20460;-71
2022/11/01 11:12:00;;;;;;;2.80;0.57;;;16.20;99.90;;;;;;5041119;28;20795;-71
2022/11/01 11:14:30;;;;;;;1.87;0.80;;;16.30;99.90;;;;;;5042082;28;20497;-70
2022/11/01 11:16:57;;;;;;;0.90;0.63;;;16.20;99.90;;;;;;5049195;28;20504;-70
2022/11/01 11:19:34;;;;;;;2.00;0.90;;;16.20;99.90;;;;;;5056329;28;20486;-70
2022/11/01 11:22:05;;;;;;;1.50;0.87;;;16.20;99.90;;;;;;5054763;28;20447;-70
2022/11/01 11:24:33;;;;;;;2.10;1.00;;;16.30;99.90;;;;;;5043039;28;20441;-71
2022/11/01 11:27:01;;;;;;;3.20;0.70;;;16.30;99.90;;;;;;5035218;28;20443;-71
2022/11/01 11:29:53;;;;;;;2.40;1.00;;;16.40;99.90;;;;;;5038868;28;20458;-70
2022/11/01 11:32:27;;;;;;;1.80;1.70;;;16.40;99.90;;;;;;5040966;28;20459;-71
2022/11/01 11:35:03;;;;;;;0.93;0.70;;;16.50;99.90;;;;;;5055622;28;20482;-71
2022/11/01 11:37:32;;;;;;;1.07;0.73;;;16.60;99.90;;;;;;5025706;28;20478;-71
2022/11/01 11:40:18;;;;;;;1.47;0.70;;;16.70;99.90;;;;;;5043187;28;20509;-70
2022/11/01 11:42:48;;;;;;;1.53;1.40;;;16.70;99.90;;;;;;5061370;28;20501;-71
2022/11/01 11:45:28;;;;;;;3.03;1.27;;;16.90;99.90;;;;;;5042033;28;20474;-70
2022/11/01 11:48:14;;;;;;;2.90;1.07;;;16.90;99.90;;;;;;5043160;28;21000;-71
2022/11/01 11:50:40;;;;;;;1.57;1.10;;;17.00;99.90;;;;;;5027667;28;20451;-70
2022/11/01 11:53:21;;;;;;;1.93;0.80;;;17.00;99.90;;;;;;5042701;28;21025;-71
2022/11/01 11:55:52;;;;;;;0.93;0.80;;;17.10;99.90;;;;;;5061028;28;20913;-72
2022/11/01 11:58:36;;;;;;;1.47;0.90;;;17.30;99.90;;;;;;5029294;28;20463;-72
2022/11/01 12:01:14;;;;;;;0.80;0.80;;;17.40;99.90;;;;;;5043768;28;20462;-72
2022/11/01 12:04:03;;;;;;;0.70;0.70;;;17.40;99.90;;;;;;5040756;28;20970;-72
2022/11/01 12:06:30;;;;;;;3.50;1.50;;;17.50;99.90;;;;;;5041413;28;20462;-72
2022/11/01 12:08:58;;;;;;;5.30;2.50;;;17.40;99.90;;;;;;5040310;28;20471;-72
2022/11/01 12:11:36;;;;;;;3.60;1.60;;;17.40;99.90;;;;;;5041004;28;20462;-70
2022/11/01 12:14:04;;;;;;;2.43;1.30;;;17.40;99.90;;;;;;5039789;28;20451;-71
2022/11/01 12:16:39;;;;;;;2.20;1.10;;;17.30;99.90;;;;;;5038169;28;20459;-70
2022/11/01 12:19:05;;;;;;;1.40;0.90;;;17.30;99.90;;;;;;5038285;28;21048;-71
2022/11/01 12:21:41;;;;;;;1.73;0.90;;;17.30;99.90;;;;;;5040471;28;20453;-70
2022/11/01 12:24:22;;;;;;;2.03;0.93;;;17.30;99.90;;;;;;5025607;28;20451;-70
2022/11/01 12:26:50;;;;;;;1.73;1.00;;;17.30;99.90;;;;;;5035403;28;20538;-71
2022/11/01 12:29:16;;;;;;;1.30;0.83;;;17.30;99.90;;;;;;5046300;28;20496;-69
2022/11/01 12:31:44;;;;;;;2.30;0.80;;;17.30;99.90;;;;;;5049310;28;20540;-71
2022/11/01 12:34:40;;;;;;;1.80;1.07;;;17.40;99.90;;;;;;5046361;28;20223;-71
2022/11/01 12:37:20;;;;;;;1.60;0.83;;;17.60;99.90;;;;;;5016010;28;20835;-69
2022/11/01 12:39:51;;;;;;;1.90;0.87;;;17.70;99.90;;;;;;5025612;28;20513;-69
2022/11/01 12:42:27;;;;;;;0.93;0.83;;;17.70;99.90;;;;;;5027902;28;20514;-70
2022/11/01 12:45:09;;;;;;;3.27;1.70;;;17.70;99.90;;;;;;5046644;28;20457;-71
2022/11/01 12:47:44;;;;;;;14.93;8.00;;;17.60;99.90;;;;;;5039058;28;20465;-70
2022/11/01 12:50:27;;;;;;;12.50;8.43;;;17.70;99.90;;;;;;5043091;28;20474;-71
2022/11/01 12:53:03;;;;;;;8.30;5.93;;;17.70;99.90;;;;;;5048015;28;20514;-71
2022/11/01 12:55:34;;;;;;;3.93;2.60;;;17.70;99.90;;;;;;5016364;28;20529;-70
2022/11/01 12:58:02;;;;;;;5.33;1.30;;;17.80;99.90;;;;;;5026022;28;20992;-71
2022/11/01 13:00:40;;;;;;;1.17;1.07;;;17.80;99.90;;;;;;5032162;28;20549;-70